createdAt,value
2019-05-29T00:00:12.982Z,5.92
2019-05-29T00:02:42.765Z,6.67
2019-05-29T00:05:12.300Z,7.00
2019-05-29T00:07:42.212Z,6.45
2019-05-29T00:10:12.340Z,6.55
2019-05-29T00:12:41.962Z,6.50
2019-05-29T00:15:12.452Z,8.58
2019-05-29T00:17:42.175Z,6.58
2019-05-29T00:20:12.359Z,6.58
2019-05-29T00:22:41.871Z,5.90
2019-05-29T00:25:11.125Z,6.60
2019-05-29T00:27:40.377Z,6.22
2019-05-29T00:30:10.735Z,6.30
2019-05-29T00:32:40.134Z,7.55
2019-05-29T00:35:10.195Z,7.30
2019-05-29T00:37:39.582Z,7.78
2019-05-29T00:40:09.123Z,7.90
2019-05-29T00:42:38.486Z,5.33
2019-05-29T00:45:09.553Z,5.70
2019-05-29T00:47:38.978Z,5.90
2019-05-29T00:50:08.494Z,6.83
2019-05-29T00:52:37.742Z,6.75
2019-05-29T00:55:08.383Z,5.53
2019-05-29T00:57:38.047Z,6.10
2019-05-29T01:00:11.183Z,4.70
2019-05-29T01:02:41.426Z,5.53
2019-05-29T01:05:11.899Z,7.40
2019-05-29T01:07:41.579Z,5.80
2019-05-29T01:10:11.041Z,6.72
2019-05-29T01:12:40.257Z,5.33
2019-05-29T01:15:09.671Z,5.00
2019-05-29T01:17:38.905Z,5.45
2019-05-29T01:20:08.322Z,5.33
2019-05-29T01:22:37.752Z,4.58
2019-05-29T01:25:07.781Z,4.80
2019-05-29T01:27:37.033Z,4.25
2019-05-29T01:30:06.704Z,4.75
2019-05-29T01:32:35.948Z,5.53
2019-05-29T01:35:08.998Z,5.17
2019-05-29T01:37:38.313Z,4.70
2019-05-29T01:40:19.936Z,5.22
2019-05-29T01:42:42.225Z,4.67
2019-05-29T01:45:11.605Z,5.28
2019-05-29T01:47:40.833Z,6.60
2019-05-29T01:50:10.101Z,4.87
2019-05-29T01:52:39.321Z,4.60
2019-05-29T01:55:08.924Z,5.33
2019-05-29T01:57:38.339Z,5.62
2019-05-29T02:00:08.446Z,4.87
2019-05-29T02:02:37.727Z,4.10
2019-05-29T02:05:08.281Z,4.65
2019-05-29T02:07:37.506Z,3.98
2019-05-29T02:10:07.314Z,5.53
2019-05-29T02:12:36.540Z,4.95
2019-05-29T02:15:23.098Z,5.80
2019-05-29T02:17:40.358Z,3.50
2019-05-29T02:20:09.966Z,4.75
2019-05-29T02:22:39.199Z,4.72
2019-05-29T02:25:08.521Z,4.10
2019-05-29T02:27:37.938Z,4.28
2019-05-29T02:30:08.774Z,4.75
2019-05-29T02:32:38.793Z,4.15
2019-05-29T02:35:08.019Z,4.72
2019-05-29T02:37:37.291Z,5.72
2019-05-29T02:40:07.738Z,4.55
2019-05-29T02:42:37.043Z,3.58
2019-05-29T02:45:06.970Z,4.75
2019-05-29T02:47:36.234Z,4.17
2019-05-29T02:50:08.208Z,4.35
2019-05-29T02:52:38.835Z,5.05
2019-05-29T02:55:09.675Z,3.55
2019-05-29T02:57:40.152Z,3.37
2019-05-29T03:00:09.486Z,3.75
2019-05-29T03:02:38.909Z,3.98
2019-05-29T03:05:08.238Z,2.62
2019-05-29T03:07:38.620Z,3.90
2019-05-29T03:10:09.649Z,3.17
2019-05-29T03:12:39.538Z,2.50
2019-05-29T03:15:08.755Z,3.05
2019-05-29T03:17:38.069Z,2.80
2019-05-29T03:20:07.766Z,2.55
2019-05-29T03:22:37.044Z,2.10
2019-05-29T03:25:09.391Z,2.02
2019-05-29T03:27:38.651Z,2.70
2019-05-29T03:30:09.023Z,2.42
2019-05-29T03:32:46.712Z,2.10
2019-05-29T03:35:09.155Z,2.27
2019-05-29T03:37:38.911Z,2.12
2019-05-29T03:40:08.484Z,1.60
2019-05-29T03:42:39.061Z,1.65
2019-05-29T03:45:09.094Z,1.45
2019-05-29T03:47:38.331Z,2.00
2019-05-29T03:50:08.698Z,1.98
2019-05-29T03:52:39.215Z,1.47
2019-05-29T03:55:08.518Z,1.57
2019-05-29T03:57:38.326Z,2.15
2019-05-29T04:00:08.144Z,1.80
2019-05-29T04:02:38.153Z,1.70
2019-05-29T04:05:08.535Z,1.30
2019-05-29T04:07:38.318Z,1.60
2019-05-29T04:10:08.242Z,1.30
2019-05-29T04:12:38.047Z,1.07
2019-05-29T04:15:07.495Z,1.50
2019-05-29T04:17:38.038Z,0.90
2019-05-29T04:20:07.907Z,1.15
2019-05-29T04:22:38.638Z,1.57
2019-05-29T04:25:07.868Z,1.70
2019-05-29T04:27:38.508Z,2.25
2019-05-29T04:30:07.951Z,1.57
2019-05-29T04:32:38.488Z,1.02
2019-05-29T04:35:08.104Z,1.87
2019-05-29T04:37:39.869Z,1.00
2019-05-29T04:40:09.443Z,1.20
2019-05-29T04:42:40.144Z,1.10
2019-05-29T04:45:10.227Z,1.00
2019-05-29T04:47:39.902Z,0.93
2019-05-29T04:50:09.667Z,1.10
2019-05-29T04:52:40.194Z,1.05
2019-05-29T04:55:09.835Z,1.10
2019-05-29T04:57:39.337Z,1.42
2019-05-29T05:00:09.412Z,1.10
2019-05-29T05:02:39.465Z,0.85
2019-05-29T05:05:09.001Z,1.00
2019-05-29T05:07:39.687Z,1.07
2019-05-29T05:10:09.815Z,2.12
2019-05-29T05:12:40.189Z,1.10
2019-05-29T05:15:10.005Z,1.05
2019-05-29T05:17:40.124Z,1.42
2019-05-29T05:20:09.750Z,1.60
2019-05-29T05:22:40.087Z,1.60
2019-05-29T05:25:09.993Z,1.82
2019-05-29T05:27:40.474Z,1.30
2019-05-29T05:30:11.130Z,1.57
2019-05-29T05:32:41.175Z,1.87
2019-05-29T05:35:14.177Z,10.50
2019-05-29T05:37:41.821Z,1.98
2019-05-29T05:40:11.330Z,1.90
2019-05-29T05:42:41.279Z,1.10
2019-05-29T05:45:10.956Z,1.60
2019-05-29T05:47:53.632Z,1.87
2019-05-29T05:50:11.580Z,1.45
2019-05-29T05:52:41.678Z,1.10
2019-05-29T05:55:12.310Z,1.40
2019-05-29T05:57:41.899Z,1.30
2019-05-29T06:00:13.914Z,1.45
2019-05-29T06:02:43.401Z,1.30
2019-05-29T06:05:13.270Z,1.35
2019-05-29T06:07:42.607Z,1.62
2019-05-29T06:10:12.004Z,1.72
2019-05-29T06:12:42.856Z,1.85
2019-05-29T06:15:12.564Z,1.60
2019-05-29T06:17:51.447Z,1.27
2019-05-29T06:20:12.781Z,2.60
2019-05-29T06:22:43.629Z,4.33
2019-05-29T06:25:13.453Z,8.00
2019-05-29T06:27:43.372Z,7.45
2019-05-29T06:30:12.877Z,8.68
2019-05-29T06:32:43.518Z,8.23
2019-05-29T06:35:13.456Z,5.97
2019-05-29T06:37:43.762Z,5.17
2019-05-29T06:40:15.918Z,5.92
2019-05-29T06:42:45.290Z,4.65
2019-05-29T06:45:16.095Z,5.15
2019-05-29T06:47:45.464Z,4.12
2019-05-29T06:50:14.706Z,3.52
2019-05-29T06:52:45.177Z,4.72
2019-05-29T06:55:14.469Z,4.03
2019-05-29T06:57:44.436Z,4.20
2019-05-29T07:00:13.919Z,3.30
2019-05-29T07:02:43.135Z,5.80
2019-05-29T07:05:12.420Z,5.55
2019-05-29T07:07:42.444Z,3.92
2019-05-29T07:10:12.018Z,2.98
2019-05-29T07:12:42.343Z,3.83
2019-05-29T07:15:11.913Z,2.60
2019-05-29T07:17:42.262Z,3.33
2019-05-29T07:20:11.943Z,2.35
2019-05-29T07:22:41.183Z,2.10
2019-05-29T07:25:10.462Z,1.87
2019-05-29T07:27:40.770Z,3.45
2019-05-29T07:30:10.220Z,3.37
2019-05-29T07:32:40.950Z,4.65
2019-05-29T07:35:10.460Z,1.72
2019-05-29T07:37:39.832Z,2.37
2019-05-29T07:40:09.945Z,2.58
2019-05-29T07:42:41.509Z,1.82
2019-05-29T07:45:11.547Z,2.35
2019-05-29T07:47:42.273Z,2.40
2019-05-29T07:50:12.416Z,3.22
2019-05-29T07:52:43.087Z,1.98
2019-05-29T07:55:12.728Z,1.95
2019-05-29T07:57:42.822Z,1.77
2019-05-29T08:00:13.907Z,2.47
2019-05-29T08:02:43.398Z,1.80
2019-05-29T08:05:13.042Z,2.85
2019-05-29T08:07:43.588Z,1.67
2019-05-29T08:10:13.214Z,2.00
2019-05-29T08:12:48.420Z,2.00
2019-05-29T08:15:13.348Z,2.40
2019-05-29T08:17:43.931Z,2.70
2019-05-29T08:20:13.564Z,2.30
2019-05-29T08:22:44.287Z,1.70
2019-05-29T08:25:13.917Z,2.08
2019-05-29T08:27:44.591Z,2.65
2019-05-29T08:30:14.342Z,2.47
2019-05-29T08:32:44.926Z,1.98
2019-05-29T08:35:15.154Z,1.45
2019-05-29T08:37:44.956Z,1.50
2019-05-29T08:40:14.408Z,1.82
2019-05-29T08:42:43.682Z,1.82
2019-05-29T08:45:13.224Z,1.62
2019-05-29T08:47:43.417Z,1.45
2019-05-29T08:50:18.513Z,1.90
2019-05-29T08:52:43.950Z,1.70
2019-05-29T08:55:14.011Z,1.62
2019-05-29T08:57:44.251Z,1.70
2019-05-29T09:00:14.257Z,1.50
2019-05-29T09:02:44.659Z,2.00
2019-05-29T09:05:14.264Z,2.45
2019-05-29T09:07:44.463Z,1.42
2019-05-29T09:10:14.513Z,1.50
2019-05-29T09:12:46.956Z,1.35
2019-05-29T09:15:20.574Z,2.50
2019-05-29T09:17:45.542Z,1.67
2019-05-29T09:20:29.455Z,1.67
2019-05-29T09:22:46.070Z,1.40
2019-05-29T09:25:16.726Z,2.35
2019-05-29T09:27:46.502Z,1.80
2019-05-29T09:30:17.178Z,1.65
2019-05-29T09:32:50.817Z,1.80
2019-05-29T09:35:19.458Z,1.60
2019-05-29T09:37:48.448Z,1.20
2019-05-29T09:40:19.000Z,1.60
2019-05-29T09:42:48.699Z,1.90
2019-05-29T09:45:19.489Z,1.10
2019-05-29T09:47:50.230Z,1.65
2019-05-29T09:50:23.975Z,0.90
2019-05-29T09:52:54.460Z,1.55
2019-05-29T09:55:23.386Z,1.50
2019-05-29T09:57:54.133Z,1.10
2019-05-29T10:00:24.206Z,1.55
2019-05-29T10:02:54.437Z,1.10
2019-05-29T10:05:24.336Z,0.80
2019-05-29T10:07:55.145Z,1.15
2019-05-29T10:10:24.563Z,2.45
2019-05-29T10:12:55.367Z,1.30
2019-05-29T10:15:24.702Z,1.65
2019-05-29T10:17:54.111Z,1.12
2019-05-29T10:20:24.840Z,0.90
2019-05-29T10:22:55.506Z,1.45
2019-05-29T10:25:24.950Z,1.75
2019-05-29T10:27:54.186Z,1.62
2019-05-29T10:30:24.534Z,1.40
2019-05-29T10:32:53.897Z,1.15
2019-05-29T10:35:24.427Z,1.32
2019-05-29T10:37:53.686Z,1.37
2019-05-29T10:40:22.923Z,3.22
2019-05-29T10:42:53.538Z,1.35
2019-05-29T10:45:23.187Z,1.62
2019-05-29T10:47:53.724Z,1.62
2019-05-29T10:50:24.479Z,1.05
2019-05-29T10:52:54.263Z,1.37
2019-05-29T10:55:23.908Z,1.35
2019-05-29T10:57:53.317Z,1.17
2019-05-29T11:00:24.191Z,1.15
2019-05-29T11:02:55.377Z,1.32
2019-05-29T11:05:24.403Z,1.40
2019-05-29T11:07:53.957Z,1.60
2019-05-29T11:10:23.368Z,1.30
2019-05-29T11:12:52.738Z,1.20
2019-05-29T11:15:22.548Z,1.15
2019-05-29T11:17:53.082Z,1.10
2019-05-29T11:20:23.387Z,0.70
2019-05-29T11:22:53.588Z,1.77
2019-05-29T11:25:27.409Z,1.55
2019-05-29T11:27:54.845Z,1.45
2019-05-29T11:30:25.492Z,1.55
2019-05-29T11:32:55.719Z,1.55
2019-05-29T11:35:25.654Z,1.50
2019-05-29T11:37:54.894Z,1.22
2019-05-29T11:40:24.153Z,1.25
2019-05-29T11:42:54.701Z,1.50
2019-05-29T11:45:24.289Z,1.32
2019-05-29T11:47:56.811Z,1.95
2019-05-29T11:50:24.955Z,1.42
2019-05-29T11:52:54.472Z,1.30
2019-05-29T11:55:23.956Z,1.47
2019-05-29T11:57:53.720Z,1.77
2019-05-29T12:00:24.589Z,1.15
2019-05-29T12:02:54.486Z,1.75
2019-05-29T12:05:24.847Z,1.30
2019-05-29T12:07:55.373Z,1.42
2019-05-29T12:10:24.978Z,1.52
2019-05-29T12:12:55.339Z,1.40
2019-05-29T12:15:24.798Z,1.50
2019-05-29T12:17:57.959Z,1.15
2019-05-29T12:20:28.171Z,1.95
2019-05-29T12:23:18.908Z,1.42
2019-05-29T12:25:26.787Z,1.00
2019-05-29T12:27:57.360Z,1.62
2019-05-29T12:30:26.963Z,1.50
2019-05-29T12:32:56.842Z,1.37
2019-05-29T12:35:26.300Z,2.12
2019-05-29T12:37:55.521Z,1.65
2019-05-29T12:40:24.767Z,2.10
2019-05-29T12:42:55.504Z,2.05
2019-05-29T12:45:24.989Z,2.98
2019-05-29T12:47:55.958Z,1.37
2019-05-29T12:50:25.142Z,1.20
2019-05-29T12:52:55.713Z,1.65
2019-05-29T12:55:25.285Z,1.45
2019-05-29T12:57:55.784Z,0.90
2019-05-29T13:00:25.910Z,1.50
2019-05-29T13:02:56.238Z,1.65
2019-05-29T13:05:26.010Z,1.00
2019-05-29T13:07:56.650Z,1.30
2019-05-29T13:10:31.112Z,1.42
2019-05-29T13:13:04.268Z,1.75
2019-05-29T13:15:30.253Z,1.90
2019-05-29T13:18:04.166Z,1.80
2019-05-29T13:20:31.572Z,1.20
2019-05-29T13:23:02.966Z,1.92
2019-05-29T13:25:33.011Z,1.00
2019-05-29T13:28:03.050Z,1.25
2019-05-29T13:30:33.067Z,1.27
2019-05-29T13:33:03.620Z,1.32
2019-05-29T13:35:33.199Z,1.10
2019-05-29T13:38:03.263Z,2.90
2019-05-29T13:40:33.073Z,1.55
2019-05-29T13:43:11.138Z,1.82
2019-05-29T13:45:33.194Z,1.35
2019-05-29T13:48:03.263Z,1.77
2019-05-29T13:50:32.886Z,1.20
2019-05-29T13:53:03.372Z,1.67
2019-05-29T13:55:32.869Z,1.35
2019-05-29T13:58:02.121Z,1.32
2019-05-29T14:00:34.788Z,1.95
2019-05-29T14:03:04.881Z,1.45
2019-05-29T14:05:34.500Z,1.90
2019-05-29T14:08:04.769Z,1.62
2019-05-29T14:10:34.507Z,2.15
2019-05-29T14:13:05.112Z,1.10
2019-05-29T14:15:34.522Z,1.50
2019-05-29T14:18:04.911Z,1.20
2019-05-29T14:20:34.368Z,0.95
2019-05-29T14:23:03.585Z,1.17
2019-05-29T14:25:32.831Z,1.62
2019-05-29T14:28:02.631Z,2.10
2019-05-29T14:30:32.187Z,1.90
2019-05-29T14:33:02.336Z,1.47
2019-05-29T14:35:31.988Z,1.52
2019-05-29T14:38:01.445Z,1.47
2019-05-29T14:40:30.875Z,1.65
2019-05-29T14:43:00.105Z,0.80
2019-05-29T14:45:29.389Z,1.20
2019-05-29T14:47:58.626Z,1.32
2019-05-29T14:50:27.908Z,1.57
2019-05-29T14:52:57.157Z,1.20
2019-05-29T14:55:26.400Z,1.47
2019-05-29T14:57:55.676Z,1.27
2019-05-29T15:00:25.900Z,1.30
2019-05-29T15:02:55.283Z,1.00
2019-05-29T15:05:24.561Z,0.98
2019-05-29T15:07:53.859Z,1.82
2019-05-29T15:10:27.568Z,1.00
2019-05-29T15:12:57.802Z,0.90
2019-05-29T15:15:24.889Z,1.90
2019-05-29T15:17:54.120Z,1.12
2019-05-29T15:20:23.363Z,1.30
2019-05-29T15:22:52.659Z,1.40
2019-05-29T15:25:24.422Z,1.27
2019-05-29T15:27:53.379Z,1.20
2019-05-29T15:30:23.801Z,1.02
2019-05-29T15:32:53.521Z,1.35
2019-05-29T15:35:22.870Z,1.10
2019-05-29T15:37:52.142Z,1.10
2019-05-29T15:40:21.420Z,1.32
2019-05-29T15:42:50.693Z,1.70
2019-05-29T15:45:20.246Z,1.55
2019-05-29T15:47:49.502Z,1.27
2019-05-29T15:50:18.772Z,1.22
2019-05-29T15:52:48.069Z,1.07
2019-05-29T15:55:29.754Z,2.62
2019-05-29T15:57:49.832Z,2.05
2019-05-29T16:00:19.196Z,1.52
2019-05-29T16:02:49.706Z,1.27
2019-05-29T16:05:19.599Z,1.67
2019-05-29T16:07:48.844Z,1.80
2019-05-29T16:10:21.018Z,1.45
2019-05-29T16:12:51.556Z,1.52
2019-05-29T16:15:20.819Z,1.47
2019-05-29T16:17:50.071Z,1.92
2019-05-29T16:20:19.732Z,1.20
2019-05-29T16:22:50.205Z,1.10
2019-05-29T16:25:19.495Z,1.02
2019-05-29T16:27:48.830Z,1.20
2019-05-29T16:30:19.638Z,1.40
2019-05-29T16:32:49.827Z,1.42
2019-05-29T16:35:19.637Z,0.93
2019-05-29T16:37:49.112Z,1.02
2019-05-29T16:40:19.790Z,1.57
2019-05-29T16:42:49.358Z,1.35
2019-05-29T16:45:20.307Z,0.82
2019-05-29T16:47:49.994Z,1.05
2019-05-29T16:50:19.823Z,1.70
2019-05-29T16:52:50.530Z,0.93
2019-05-29T16:55:20.939Z,0.85
2019-05-29T16:57:50.651Z,2.65
2019-05-29T17:00:21.725Z,1.20
2019-05-29T17:02:51.332Z,1.30
2019-05-29T17:05:21.883Z,2.20
2019-05-29T17:07:51.543Z,1.80
2019-05-29T17:10:22.509Z,1.60
2019-05-29T17:12:51.954Z,1.25
2019-05-29T17:15:21.267Z,1.50
2019-05-29T17:17:51.662Z,2.20
2019-05-29T17:20:22.700Z,2.00
2019-05-29T17:22:52.464Z,1.60
2019-05-29T17:25:25.545Z,2.05
2019-05-29T17:27:52.613Z,1.30
2019-05-29T17:30:23.386Z,4.05
2019-05-29T17:32:52.613Z,1.05
2019-05-29T17:35:23.052Z,4.58
2019-05-29T17:37:52.485Z,1.90
2019-05-29T17:40:21.934Z,1.20
2019-05-29T17:42:51.174Z,1.55
2019-05-29T17:45:23.044Z,2.00
2019-05-29T17:47:51.436Z,2.12
2019-05-29T17:50:23.162Z,2.05
2019-05-29T17:52:51.977Z,1.85
2019-05-29T17:55:23.063Z,1.15
2019-05-29T17:57:52.728Z,1.52
2019-05-29T18:00:22.616Z,1.45
2019-05-29T18:02:52.853Z,1.15
2019-05-29T18:05:22.667Z,1.40
2019-05-29T18:07:52.632Z,1.55
2019-05-29T18:10:24.209Z,2.33
2019-05-29T18:12:54.352Z,2.70
2019-05-29T18:15:23.823Z,1.52
2019-05-29T18:17:53.102Z,1.50
2019-05-29T18:20:23.564Z,1.15
2019-05-29T18:22:53.170Z,1.57
2019-05-29T18:25:22.469Z,2.40
2019-05-29T18:27:51.702Z,2.00
2019-05-29T18:30:22.346Z,1.70
2019-05-29T18:32:51.572Z,1.95
2019-05-29T18:35:20.869Z,1.80
2019-05-29T18:37:50.106Z,1.82
2019-05-29T18:40:20.420Z,1.40
2019-05-29T18:42:49.713Z,1.72
2019-05-29T18:45:22.429Z,1.70
2019-05-29T18:47:50.998Z,1.90
2019-05-29T18:50:21.369Z,1.30
2019-05-29T18:52:50.979Z,1.25
2019-05-29T18:55:20.846Z,1.40
2019-05-29T18:57:50.283Z,2.33
2019-05-29T19:00:21.141Z,1.95
2019-05-29T19:02:50.651Z,1.70
2019-05-29T19:05:21.368Z,3.25
2019-05-29T19:07:51.025Z,1.30
2019-05-29T19:10:21.558Z,2.10
2019-05-29T19:12:51.219Z,2.27
2019-05-29T19:15:21.859Z,1.27
2019-05-29T19:17:51.330Z,1.45
2019-05-29T19:20:22.101Z,1.55
2019-05-29T19:22:51.755Z,1.85
2019-05-29T19:25:21.083Z,2.05
2019-05-29T19:27:50.592Z,1.70
2019-05-29T19:30:19.895Z,2.17
2019-05-29T19:32:49.196Z,1.50
2019-05-29T19:35:18.531Z,1.82
2019-05-29T19:37:47.789Z,1.70
2019-05-29T19:40:17.951Z,2.12
2019-05-29T19:42:47.236Z,1.67
2019-05-29T19:45:17.871Z,2.37
2019-05-29T19:47:47.549Z,1.65
2019-05-29T19:50:16.795Z,1.95
2019-05-29T19:52:46.110Z,1.75
2019-05-29T19:55:15.465Z,1.55
2019-05-29T19:57:55.495Z,1.52
2019-05-29T20:00:16.520Z,2.17
2019-05-29T20:02:46.318Z,1.77
2019-05-29T20:05:41.136Z,1.15
2019-05-29T20:08:10.623Z,1.60
2019-05-29T20:10:39.896Z,2.27
2019-05-29T20:13:09.129Z,1.07
2019-05-29T20:15:38.402Z,1.70
2019-05-29T20:18:07.672Z,2.77
2019-05-29T20:20:36.923Z,1.80
2019-05-29T20:23:06.177Z,1.67
2019-05-29T20:25:35.477Z,2.80
2019-05-29T20:28:06.659Z,1.32
2019-05-29T20:30:36.451Z,2.83
2019-05-29T20:33:05.839Z,2.85
2019-05-29T20:35:35.100Z,1.30
2019-05-29T20:38:06.495Z,2.00
2019-05-29T20:40:35.265Z,1.40
2019-05-29T20:43:04.533Z,1.47
2019-05-29T20:45:34.095Z,1.40
2019-05-29T20:48:03.527Z,0.88
2019-05-29T20:50:32.892Z,1.62
2019-05-29T20:53:02.113Z,1.45
2019-05-29T20:55:31.603Z,1.27
2019-05-29T20:58:01.037Z,1.00
2019-05-29T21:00:30.378Z,1.10
2019-05-29T21:02:59.690Z,1.10
2019-05-29T21:05:28.967Z,1.40
2019-05-29T21:07:58.215Z,2.00
2019-05-29T21:10:27.451Z,1.42
2019-05-29T21:12:56.751Z,1.12
2019-05-29T21:15:27.296Z,1.12
2019-05-29T21:17:56.600Z,2.00
2019-05-29T21:20:29.016Z,1.77
2019-05-29T21:22:56.752Z,1.30
2019-05-29T21:25:25.990Z,1.10
2019-05-29T21:27:55.251Z,1.70
2019-05-29T21:30:24.950Z,1.60
2019-05-29T21:32:54.207Z,1.15
2019-05-29T21:35:23.470Z,1.60
2019-05-29T21:37:52.717Z,1.00
2019-05-29T21:40:22.010Z,1.15
2019-05-29T21:42:51.272Z,1.65
2019-05-29T21:45:20.594Z,2.08
2019-05-29T21:47:49.854Z,1.47
2019-05-29T21:50:19.167Z,1.60
2019-05-29T21:52:48.532Z,1.20
2019-05-29T21:55:17.876Z,1.30
2019-05-29T21:57:49.839Z,1.32
2019-05-29T22:00:23.868Z,1.37
2019-05-29T22:02:54.769Z,1.00
2019-05-29T22:05:24.031Z,1.00
2019-05-29T22:07:53.259Z,1.72
2019-05-29T22:10:26.096Z,1.30
2019-05-29T22:12:54.637Z,1.10
2019-05-29T22:15:24.933Z,1.20
2019-05-29T22:17:54.924Z,1.32
2019-05-29T22:20:24.515Z,1.05
2019-05-29T22:22:55.056Z,1.05
2019-05-29T22:25:24.643Z,2.35
2019-05-29T22:27:55.217Z,0.95
2019-05-29T22:30:24.841Z,1.40
2019-05-29T22:32:55.272Z,1.30
2019-05-29T22:35:24.654Z,1.22
2019-05-29T22:37:53.914Z,1.32
2019-05-29T22:40:23.247Z,1.00
2019-05-29T22:42:53.441Z,2.33
2019-05-29T22:45:23.854Z,1.15
2019-05-29T22:47:53.716Z,1.50
2019-05-29T22:50:23.253Z,1.12
2019-05-29T22:52:53.671Z,0.80
2019-05-29T22:55:23.287Z,1.55
2019-05-29T22:57:53.715Z,1.30
2019-05-29T23:00:23.185Z,0.90
2019-05-29T23:02:52.472Z,1.00
2019-05-29T23:05:21.710Z,1.32
2019-05-29T23:07:51.996Z,1.30
2019-05-29T23:10:21.549Z,1.27
2019-05-29T23:12:52.810Z,1.00
2019-05-29T23:15:21.986Z,1.57
2019-05-29T23:17:52.392Z,1.45
2019-05-29T23:20:21.909Z,1.30
2019-05-29T23:22:52.451Z,1.65
2019-05-29T23:25:22.328Z,1.10
2019-05-29T23:27:52.701Z,0.82
2019-05-29T23:30:22.107Z,1.07
2019-05-29T23:32:52.709Z,1.62
2019-05-29T23:35:23.327Z,1.30
2019-05-29T23:37:53.051Z,1.42
2019-05-29T23:40:22.956Z,1.00
2019-05-29T23:42:53.404Z,1.35
2019-05-29T23:45:22.678Z,1.20
2019-05-29T23:47:51.918Z,1.10
2019-05-29T23:50:21.162Z,1.35
2019-05-29T23:52:50.422Z,1.60
2019-05-29T23:55:19.707Z,1.90
2019-05-29T23:57:48.929Z,1.47
